createdAt,value
2023-02-24T00:02:15.029Z,4.73
2023-02-24T00:04:41.927Z,4.50
2023-02-24T00:07:16.898Z,5.33
2023-02-24T00:09:44.667Z,4.70
2023-02-24T00:12:15.476Z,4.70
2023-02-24T00:14:44.614Z,5.37
2023-02-24T00:17:14.629Z,4.37
2023-02-24T00:19:41.493Z,4.33
2023-02-24T00:22:09.055Z,4.63
2023-02-24T00:24:36.715Z,4.80
2023-02-24T00:27:08.334Z,3.83
2023-02-24T00:29:37.739Z,4.93
2023-02-24T00:32:08.154Z,4.17
2023-02-24T00:34:37.610Z,4.57
2023-02-24T00:37:07.104Z,4.20
2023-02-24T00:39:35.522Z,4.50
2023-02-24T00:42:04.880Z,3.50
2023-02-24T00:44:34.060Z,4.33
2023-02-24T00:47:07.015Z,3.60
2023-02-24T00:49:36.012Z,3.80
2023-02-24T00:52:06.619Z,3.80
2023-02-24T00:54:38.382Z,4.17
2023-02-24T00:57:10.253Z,4.20
2023-02-24T00:59:38.193Z,4.17
2023-02-24T01:02:07.215Z,3.80
2023-02-24T01:04:34.186Z,4.20
2023-02-24T01:07:01.548Z,4.20
2023-02-24T01:09:31.382Z,4.03
2023-02-24T01:12:19.640Z,3.78
2023-02-24T01:14:48.404Z,3.47
2023-02-24T01:17:19.374Z,3.60
2023-02-24T01:19:49.391Z,4.05
2023-02-24T01:22:17.725Z,3.80
2023-02-24T01:24:45.624Z,3.73
2023-02-24T01:27:19.793Z,3.35
2023-02-24T01:29:51.099Z,3.80
2023-02-24T01:32:21.875Z,4.10
2023-02-24T01:34:52.242Z,3.05
2023-02-24T01:37:19.702Z,3.60
2023-02-24T01:39:47.434Z,3.97
2023-02-24T01:42:17.176Z,3.50
2023-02-24T01:44:43.798Z,4.20
2023-02-24T01:47:14.197Z,3.53
2023-02-24T01:49:46.699Z,3.50
2023-02-24T01:52:26.417Z,3.30
2023-02-24T01:55:06.439Z,3.17
2023-02-24T01:57:38.661Z,3.67
2023-02-24T02:00:31.378Z,3.87
2023-02-24T02:03:02.753Z,3.47
2023-02-24T02:05:29.353Z,3.80
2023-02-24T02:07:57.378Z,3.80
2023-02-24T02:10:24.899Z,3.80
2023-02-24T02:12:51.502Z,3.23
2023-02-24T02:15:20.860Z,3.47
2023-02-24T02:18:02.800Z,3.40
2023-02-24T02:21:04.110Z,3.70
2023-02-24T02:23:44.348Z,3.30
2023-02-24T02:26:25.862Z,3.50
2023-02-24T02:29:11.074Z,3.93
2023-02-24T02:32:05.527Z,4.13
2023-02-24T02:34:50.409Z,3.97
2023-02-24T02:37:33.101Z,4.00
2023-02-24T02:40:20.022Z,4.63
2023-02-24T02:43:04.334Z,4.87
2023-02-24T02:45:47.718Z,3.83
2023-02-24T02:48:25.717Z,4.07
2023-02-24T02:50:57.354Z,4.70
2023-02-24T02:54:00.664Z,3.63
2023-02-24T02:56:54.425Z,4.23
2023-02-24T02:59:26.799Z,3.33
2023-02-24T03:02:11.567Z,4.43
2023-02-24T03:04:48.620Z,3.40
2023-02-24T03:07:19.838Z,4.30
2023-02-24T03:09:51.835Z,3.93
2023-02-24T03:12:24.318Z,3.90
2023-02-24T03:15:00.286Z,4.10
2023-02-24T03:17:33.113Z,3.93
2023-02-24T03:20:16.213Z,3.53
2023-02-24T03:22:50.357Z,3.67
2023-02-24T03:25:25.584Z,4.10
2023-02-24T03:27:57.286Z,4.43
2023-02-24T03:30:40.794Z,3.93
2023-02-24T03:33:23.862Z,3.60
2023-02-24T03:35:52.971Z,4.13
2023-02-24T03:38:23.286Z,3.83
2023-02-24T03:40:51.399Z,3.30
2023-02-24T03:43:28.225Z,4.17
2023-02-24T03:45:55.570Z,3.80
2023-02-24T03:48:23.830Z,4.33
2023-02-24T03:50:50.778Z,4.13
2023-02-24T03:53:30.598Z,3.53
2023-02-24T03:56:01.938Z,3.70
2023-02-24T03:58:48.603Z,3.77
2023-02-24T04:01:34.930Z,3.80
2023-02-24T04:04:40.073Z,3.00
2023-02-24T04:07:09.901Z,3.80
2023-02-24T04:09:47.743Z,3.73
2023-02-24T04:12:30.635Z,3.80
2023-02-24T04:15:09.116Z,3.23
2023-02-24T04:17:44.394Z,4.10
2023-02-24T04:20:13.606Z,3.30
2023-02-24T04:22:43.769Z,3.07
2023-02-24T04:25:13.878Z,3.37
2023-02-24T04:27:44.317Z,2.70
2023-02-24T04:30:12.411Z,3.30
2023-02-24T04:32:44.466Z,3.17
2023-02-24T04:35:19.387Z,3.13
2023-02-24T04:37:46.176Z,2.73
2023-02-24T04:40:17.615Z,3.23
2023-02-24T04:42:49.029Z,3.13
2023-02-24T04:45:24.150Z,2.87
2023-02-24T04:47:56.293Z,2.87
2023-02-24T04:50:25.956Z,2.93
2023-02-24T04:53:07.093Z,2.93
2023-02-24T04:55:40.140Z,2.73
2023-02-24T04:58:14.129Z,2.87
2023-02-24T05:00:42.030Z,3.13
2023-02-24T05:03:13.562Z,2.47
2023-02-24T05:05:43.004Z,2.60
2023-02-24T05:08:15.882Z,2.57
2023-02-24T05:10:44.752Z,3.00
2023-02-24T05:13:19.454Z,3.33
2023-02-24T05:15:48.007Z,2.37
2023-02-24T05:18:19.082Z,2.83
2023-02-24T05:21:26.677Z,2.77
2023-02-24T05:23:54.914Z,3.10
2023-02-24T05:26:25.609Z,3.23
2023-02-24T05:28:54.576Z,3.27
2023-02-24T05:31:26.284Z,2.67
2023-02-24T05:33:56.115Z,2.40
2023-02-24T05:36:23.175Z,4.00
2023-02-24T05:38:56.590Z,3.20
2023-02-24T05:41:35.725Z,3.20
2023-02-24T05:44:08.669Z,2.67
2023-02-24T05:46:44.689Z,2.57
2023-02-24T05:49:27.129Z,3.07
2023-02-24T05:51:56.371Z,2.90
2023-02-24T05:54:28.751Z,3.50
2023-02-24T05:57:01.298Z,3.20
2023-02-24T05:59:32.721Z,3.43
2023-02-24T06:02:07.176Z,3.10
2023-02-24T06:04:45.884Z,3.40
2023-02-24T06:07:19.885Z,3.03
2023-02-24T06:09:50.264Z,3.47
2023-02-24T06:12:22.005Z,3.53
2023-02-24T06:14:53.169Z,3.50
2023-02-24T06:17:21.031Z,3.17
2023-02-24T06:19:53.214Z,2.63
2023-02-24T06:22:22.833Z,2.73
2023-02-24T06:24:49.720Z,2.50
2023-02-24T06:27:18.837Z,2.63
2023-02-24T06:29:50.465Z,2.20
2023-02-24T06:32:23.792Z,2.30
2023-02-24T06:34:53.992Z,2.83
2023-02-24T06:37:24.581Z,2.57
2023-02-24T06:39:56.235Z,2.57
2023-02-24T06:42:25.896Z,2.20
2023-02-24T06:44:52.484Z,2.60
2023-02-24T06:47:19.082Z,2.47
2023-02-24T06:49:45.796Z,2.40
2023-02-24T06:52:19.072Z,2.30
2023-02-24T06:54:52.382Z,2.17
2023-02-24T06:57:20.450Z,2.13
2023-02-24T06:59:48.955Z,2.40
2023-02-24T07:02:18.672Z,2.50
2023-02-24T07:04:45.322Z,2.63
2023-02-24T07:07:14.524Z,2.23
2023-02-24T07:09:47.156Z,2.97
2023-02-24T07:12:15.611Z,1.93
2023-02-24T07:14:42.227Z,2.27
2023-02-24T07:17:08.868Z,2.77
2023-02-24T07:19:37.983Z,2.83
2023-02-24T07:22:04.944Z,2.23
2023-02-24T07:24:36.320Z,2.30
2023-02-24T07:27:09.468Z,2.10
2023-02-24T07:29:37.908Z,2.47
2023-02-24T07:32:08.707Z,2.80
2023-02-24T07:34:41.655Z,2.10
2023-02-24T07:37:09.728Z,1.80
2023-02-24T07:39:39.170Z,3.03
2023-02-24T07:42:10.237Z,2.27
2023-02-24T07:44:39.231Z,2.00
2023-02-24T07:47:08.131Z,2.73
2023-02-24T07:49:36.023Z,2.57
2023-02-24T07:52:02.628Z,2.20
2023-02-24T07:54:30.255Z,2.20
2023-02-24T07:56:59.619Z,2.07
2023-02-24T07:59:32.567Z,2.00
2023-02-24T08:02:00.626Z,2.10
2023-02-24T08:04:30.360Z,1.80
2023-02-24T08:06:59.107Z,2.00
2023-02-24T08:09:46.700Z,1.83
2023-02-24T08:12:22.664Z,2.00
2023-02-24T08:14:52.303Z,2.07
2023-02-24T08:17:26.588Z,2.23
2023-02-24T08:20:21.108Z,2.37
2023-02-24T08:22:52.287Z,2.20
2023-02-24T08:25:25.808Z,1.60
2023-02-24T08:28:12.792Z,1.90
2023-02-24T08:30:46.086Z,1.77
2023-02-24T08:33:19.756Z,1.43
2023-02-24T08:36:00.997Z,1.33
2023-02-24T08:38:39.908Z,1.60
2023-02-24T08:41:11.798Z,1.60
2023-02-24T08:43:40.269Z,2.47
2023-02-24T08:46:13.391Z,1.45
2023-02-24T08:48:42.505Z,1.48
2023-02-24T08:51:28.911Z,1.43
2023-02-24T08:54:01.740Z,1.53
2023-02-24T08:56:34.408Z,1.40
2023-02-24T08:59:07.561Z,2.07
2023-02-24T09:01:37.309Z,1.80
2023-02-24T09:04:12.908Z,2.03
2023-02-24T09:06:47.343Z,2.23
2023-02-24T09:09:18.043Z,1.65
2023-02-24T09:11:50.927Z,1.50
2023-02-24T09:14:29.106Z,1.70
2023-02-24T09:17:15.095Z,1.38
2023-02-24T09:19:47.249Z,1.65
2023-02-24T09:22:21.790Z,2.00
2023-02-24T09:24:51.230Z,1.73
2023-02-24T09:27:20.202Z,2.00
2023-02-24T09:29:49.650Z,1.73
2023-02-24T09:32:16.357Z,2.63
2023-02-24T09:34:46.417Z,1.80
2023-02-24T09:37:26.356Z,1.85
2023-02-24T09:39:53.597Z,1.75
2023-02-24T09:42:34.032Z,1.80
2023-02-24T09:45:11.552Z,1.63
2023-02-24T09:47:55.197Z,1.92
2023-02-24T09:50:51.194Z,2.10
2023-02-24T09:53:17.312Z,2.60
2023-02-24T09:56:05.739Z,1.50
2023-02-24T09:58:55.417Z,2.33
2023-02-24T10:01:44.162Z,2.42
2023-02-24T10:04:21.837Z,2.17
2023-02-24T10:06:55.372Z,1.98
2023-02-24T10:09:38.894Z,2.15
2023-02-24T10:12:05.468Z,1.95
2023-02-24T10:14:51.232Z,1.58
2023-02-24T10:17:40.278Z,2.05
2023-02-24T10:20:31.037Z,1.90
2023-02-24T10:23:09.797Z,1.85
2023-02-24T10:25:54.397Z,1.98
2023-02-24T10:28:36.216Z,1.77
2023-02-24T10:31:26.574Z,1.85
2023-02-24T10:34:20.526Z,2.28
2023-02-24T10:36:50.387Z,2.00
2023-02-24T10:39:27.502Z,2.70
2023-02-24T10:42:15.590Z,2.10
2023-02-24T10:45:02.324Z,2.15
2023-02-24T10:47:31.320Z,2.05
2023-02-24T10:50:02.987Z,2.80
2023-02-24T10:53:11.603Z,2.20
2023-02-24T10:55:45.582Z,2.58
2023-02-24T10:58:28.258Z,2.40
2023-02-24T11:01:12.827Z,2.40
2023-02-24T11:03:48.221Z,2.03
2023-02-24T11:06:42.594Z,2.92
2023-02-24T11:09:29.658Z,3.33
2023-02-24T11:12:34.749Z,3.13
2023-02-24T11:15:33.745Z,4.28
2023-02-24T11:18:03.505Z,3.35
2023-02-24T11:20:48.584Z,3.17
2023-02-24T11:23:30.775Z,3.15
2023-02-24T11:26:16.917Z,2.90
2023-02-24T11:28:59.588Z,2.97
2023-02-24T11:31:43.966Z,4.05
2023-02-24T11:34:43.134Z,3.50
2023-02-24T11:37:48.903Z,3.03
2023-02-24T11:40:24.019Z,3.88
2023-02-24T11:42:50.599Z,3.22
2023-02-24T11:46:22.485Z,2.83
2023-02-24T11:48:59.685Z,3.30
2023-02-24T11:51:38.864Z,3.20
2023-02-24T11:54:15.323Z,2.95
2023-02-24T11:56:53.307Z,3.28
2023-02-24T11:59:20.224Z,3.15
2023-02-24T12:02:06.226Z,2.75
2023-02-24T12:04:39.812Z,3.25
2023-02-24T12:07:09.495Z,3.60
2023-02-24T12:09:45.516Z,3.58
2023-02-24T12:12:24.793Z,3.15
2023-02-24T12:14:58.098Z,2.95
2023-02-24T12:17:51.489Z,3.22
2023-02-24T12:20:21.245Z,3.03
2023-02-24T12:22:56.544Z,3.15
2023-02-24T12:25:32.714Z,3.15
2023-02-24T12:28:19.155Z,2.97
2023-02-24T12:31:18.041Z,3.65
2023-02-24T12:33:52.988Z,2.50
2023-02-24T12:36:43.685Z,2.75
2023-02-24T12:39:29.842Z,2.53
2023-02-24T12:42:26.723Z,3.08
2023-02-24T12:45:01.023Z,2.50
2023-02-24T12:47:53.803Z,1.75
2023-02-24T12:50:42.530Z,2.35
2023-02-24T12:53:12.508Z,3.72
2023-02-24T12:55:45.431Z,3.65
2023-02-24T12:58:25.848Z,2.60
2023-02-24T13:01:38.492Z,2.22
2023-02-24T13:04:11.559Z,2.25
2023-02-24T13:06:56.537Z,2.50
2023-02-24T13:09:54.302Z,2.30
2023-02-24T13:12:23.258Z,2.33
2023-02-24T13:14:50.869Z,2.67
2023-02-24T13:17:21.242Z,2.67
2023-02-24T13:19:49.340Z,2.53
2023-02-24T13:22:16.816Z,2.05
2023-02-24T13:24:55.046Z,2.22
2023-02-24T13:27:29.013Z,1.90
2023-02-24T13:30:02.399Z,2.00
2023-02-24T13:32:33.457Z,1.50
2023-02-24T13:35:21.880Z,2.13
2023-02-24T13:37:49.325Z,1.60
2023-02-24T13:40:16.609Z,2.15
2023-02-24T13:43:01.488Z,2.30
2023-02-24T13:45:29.197Z,2.42
2023-02-24T13:48:29.756Z,3.22
2023-02-24T13:51:08.593Z,3.03
2023-02-24T13:53:37.627Z,3.25
2023-02-24T13:56:35.224Z,3.85
2023-02-24T13:59:24.908Z,4.03
2023-02-24T14:02:00.118Z,4.32
2023-02-24T14:04:31.038Z,6.22
2023-02-24T14:07:25.947Z,4.90
2023-02-24T14:10:00.491Z,4.72
2023-02-24T14:12:30.828Z,5.15
2023-02-24T14:14:57.802Z,5.65
2023-02-24T14:17:33.578Z,5.45
2023-02-24T14:20:09.370Z,5.70
2023-02-24T14:22:53.193Z,5.90
2023-02-24T14:25:20.354Z,6.10
2023-02-24T14:27:51.814Z,6.10
2023-02-24T14:30:39.684Z,6.15
2023-02-24T14:33:08.351Z,5.82
2023-02-24T14:35:42.500Z,6.18
2023-02-24T14:38:31.751Z,5.97
2023-02-24T14:40:58.603Z,5.78
2023-02-24T14:43:25.345Z,6.57
2023-02-24T14:45:53.380Z,6.68
2023-02-24T14:48:38.153Z,6.65
2023-02-24T14:51:12.402Z,5.82
2023-02-24T14:53:48.673Z,4.88
2023-02-24T14:56:19.576Z,3.67
2023-02-24T14:58:52.296Z,2.20
2023-02-24T15:01:30.547Z,2.25
2023-02-24T15:04:11.196Z,1.58
2023-02-24T15:06:40.990Z,1.88
2023-02-24T15:09:17.477Z,1.77
2023-02-24T15:11:49.873Z,1.65
2023-02-24T15:14:26.667Z,2.05
2023-02-24T15:16:56.245Z,2.00
2023-02-24T15:19:37.807Z,2.47
2023-02-24T15:22:29.011Z,1.85
2023-02-24T15:25:17.134Z,1.80
2023-02-24T15:28:01.150Z,1.83
2023-02-24T15:30:27.755Z,1.75
2023-02-24T15:33:07.300Z,1.83
2023-02-24T15:35:39.168Z,2.28
2023-02-24T15:38:05.757Z,1.90
2023-02-24T15:40:32.647Z,1.67
2023-02-24T15:43:11.830Z,2.60
2023-02-24T15:45:40.194Z,2.15
2023-02-24T15:48:22.385Z,1.65
2023-02-24T15:50:51.916Z,2.55
2023-02-24T15:53:18.821Z,2.60
2023-02-24T15:55:46.979Z,2.03
2023-02-24T15:58:22.097Z,1.60
2023-02-24T16:00:52.433Z,1.50
2023-02-24T16:03:19.264Z,2.40
2023-02-24T16:05:46.113Z,1.92
2023-02-24T16:08:18.181Z,1.85
2023-02-24T16:10:48.438Z,1.58
2023-02-24T16:13:19.378Z,1.65
2023-02-24T16:15:46.829Z,1.35
2023-02-24T16:18:22.065Z,1.35
2023-02-24T16:20:57.012Z,1.30
2023-02-24T16:23:28.524Z,1.65
2023-02-24T16:25:59.933Z,1.73
2023-02-24T16:28:26.991Z,1.80
2023-02-24T16:30:56.412Z,1.27
2023-02-24T16:33:26.002Z,1.40
2023-02-24T16:35:55.736Z,1.38
2023-02-24T16:38:26.509Z,1.30
2023-02-24T16:40:54.060Z,1.35
2023-02-24T16:43:22.725Z,1.42
2023-02-24T16:46:04.083Z,1.00
2023-02-24T16:48:36.769Z,0.88
2023-02-24T16:51:06.529Z,0.98
2023-02-24T16:53:33.358Z,0.93
2023-02-24T16:56:00.287Z,1.40
2023-02-24T16:58:27.081Z,1.08
2023-02-24T17:00:59.206Z,1.50
2023-02-24T17:03:31.257Z,0.93
2023-02-24T17:05:57.912Z,1.00
2023-02-24T17:08:24.911Z,1.00
2023-02-24T17:10:52.089Z,1.00
2023-02-24T17:13:20.924Z,0.80
2023-02-24T17:15:47.887Z,1.02
2023-02-24T17:18:14.469Z,1.30
2023-02-24T17:20:42.516Z,1.20
2023-02-24T17:23:11.452Z,1.33
2023-02-24T17:25:40.413Z,0.93
2023-02-24T17:28:07.603Z,1.10
2023-02-24T17:30:37.371Z,0.95
2023-02-24T17:33:04.354Z,0.90
2023-02-24T17:35:31.201Z,1.05
2023-02-24T17:37:58.090Z,0.98
2023-02-24T17:40:27.219Z,1.52
2023-02-24T17:42:56.141Z,1.70
2023-02-24T17:45:22.765Z,1.73
2023-02-24T17:47:49.545Z,1.40
2023-02-24T17:50:16.944Z,1.35
2023-02-24T17:52:46.097Z,1.45
2023-02-24T17:55:12.653Z,1.33
2023-02-24T17:57:39.891Z,1.00
2023-02-24T18:00:08.669Z,1.30
2023-02-24T18:02:35.695Z,1.05
2023-02-24T18:05:02.839Z,1.63
2023-02-24T18:07:29.564Z,1.33
2023-02-24T18:09:56.189Z,1.55
2023-02-24T18:12:25.322Z,1.60
2023-02-24T18:15:06.913Z,1.33
2023-02-24T18:17:40.090Z,1.60
2023-02-24T18:20:08.339Z,1.38
2023-02-24T18:22:35.490Z,2.08
2023-02-24T18:25:05.178Z,2.20
2023-02-24T18:27:31.779Z,2.10
2023-02-24T18:29:58.415Z,2.30
2023-02-24T18:32:25.154Z,2.40
2023-02-24T18:34:51.926Z,2.22
2023-02-24T18:37:22.205Z,2.22
2023-02-24T18:39:53.403Z,2.00
2023-02-24T18:42:20.071Z,2.65
2023-02-24T18:44:48.746Z,1.83
2023-02-24T18:47:15.365Z,1.70
2023-02-24T18:49:42.062Z,2.20
2023-02-24T18:52:08.656Z,2.28
2023-02-24T18:54:35.310Z,1.63
2023-02-24T18:57:02.176Z,2.65
2023-02-24T18:59:29.273Z,1.67
2023-02-24T19:01:58.361Z,2.33
2023-02-24T19:04:27.511Z,1.65
2023-02-24T19:06:56.375Z,1.75
2023-02-24T19:20:55.937Z,2.22
2023-02-24T19:23:22.909Z,1.70
2023-02-24T19:25:52.025Z,2.03
2023-02-24T19:28:21.072Z,1.63
2023-02-24T19:30:47.976Z,1.95
2023-02-24T19:33:14.709Z,1.75
2023-02-24T19:35:42.724Z,1.95
2023-02-24T19:38:16.977Z,2.17
2023-02-24T19:40:45.024Z,1.83
2023-02-24T19:43:11.645Z,2.25
2023-02-24T19:45:47.164Z,2.40
2023-02-24T19:48:18.573Z,2.08
2023-02-24T19:50:50.044Z,1.80
2023-02-24T19:53:18.944Z,2.67
2023-02-24T19:55:49.902Z,2.40
2023-02-24T19:58:16.530Z,2.22
2023-02-24T20:00:45.703Z,2.63
2023-02-24T20:03:14.487Z,2.53
2023-02-24T20:05:43.674Z,2.28
2023-02-24T20:08:12.590Z,2.50
2023-02-24T20:10:39.197Z,2.10
2023-02-24T20:13:05.883Z,2.85
2023-02-24T20:15:33.547Z,3.20
2023-02-24T20:18:04.664Z,2.97
2023-02-24T20:20:31.326Z,2.53
2023-02-24T20:22:57.965Z,2.22
2023-02-24T20:25:24.593Z,2.47
2023-02-24T20:27:53.724Z,2.65
2023-02-24T20:30:20.406Z,2.10
2023-02-24T20:32:47.196Z,2.97
2023-02-24T20:35:16.298Z,2.30
2023-02-24T20:37:45.264Z,2.20
2023-02-24T20:40:14.638Z,2.55
2023-02-24T20:42:41.288Z,1.80
2023-02-24T20:45:12.966Z,2.55
2023-02-24T20:47:39.590Z,2.25
2023-02-24T20:50:06.612Z,2.28
2023-02-24T20:52:34.344Z,3.05
2023-02-24T20:55:00.891Z,2.58
2023-02-24T20:57:30.449Z,1.63
2023-02-24T21:00:03.481Z,1.95
2023-02-24T21:02:30.525Z,1.98
2023-02-24T21:04:59.279Z,1.80
2023-02-24T21:07:31.759Z,1.80
2023-02-24T21:09:58.481Z,2.17
2023-02-24T21:12:27.691Z,1.75
2023-02-24T21:14:54.321Z,1.88
2023-02-24T21:17:21.069Z,2.13
2023-02-24T21:19:50.029Z,2.10
2023-02-24T21:22:16.697Z,2.15
2023-02-24T21:24:43.576Z,2.13
2023-02-24T21:27:12.382Z,2.10
2023-02-24T21:29:38.950Z,2.20
2023-02-24T21:32:05.722Z,2.35
2023-02-24T21:34:32.541Z,2.47
2023-02-24T21:37:01.693Z,2.10
2023-02-24T21:39:28.313Z,2.67
2023-02-24T21:41:55.054Z,2.65
2023-02-24T21:44:24.071Z,1.67
2023-02-24T21:46:50.726Z,1.65
2023-02-24T21:49:18.269Z,2.03
2023-02-24T21:51:50.678Z,2.88
2023-02-24T21:54:17.628Z,2.20
2023-02-24T21:56:44.305Z,1.55
2023-02-24T21:59:15.779Z,2.45
2023-02-24T22:01:44.091Z,2.00
2023-02-24T22:04:18.827Z,2.00
2023-02-24T22:06:45.637Z,2.90
2023-02-24T22:09:19.284Z,2.08
2023-02-24T22:11:50.363Z,2.40
2023-02-24T22:14:20.483Z,1.95
2023-02-24T22:16:47.137Z,1.67
2023-02-24T22:19:14.270Z,1.85
2023-02-24T22:21:43.734Z,1.58
2023-02-24T22:24:15.177Z,2.10
2023-02-24T22:26:42.914Z,1.80
2023-02-24T22:29:10.350Z,1.52
2023-02-24T22:31:38.221Z,1.90
2023-02-24T22:34:05.733Z,1.48
2023-02-24T22:36:36.756Z,2.05
2023-02-24T22:39:04.809Z,2.05
2023-02-24T22:41:33.946Z,1.65
2023-02-24T22:44:04.597Z,2.15
2023-02-24T22:46:34.182Z,1.67
2023-02-24T22:49:05.101Z,1.60
2023-02-24T22:51:34.265Z,1.20
2023-02-24T22:54:04.747Z,1.52
2023-02-24T22:56:35.175Z,1.77
2023-02-24T22:59:01.805Z,2.38
2023-02-24T23:01:32.104Z,1.50
2023-02-24T23:04:03.052Z,1.70
2023-02-24T23:06:33.040Z,2.10
2023-02-24T23:09:01.027Z,1.38
2023-02-24T23:11:39.947Z,1.33
2023-02-24T23:14:10.050Z,1.98
2023-02-24T23:16:40.766Z,2.00
2023-02-24T23:19:13.130Z,2.25
2023-02-24T23:21:41.462Z,2.88
2023-02-24T23:24:12.368Z,2.30
2023-02-24T23:26:45.943Z,2.13
2023-02-24T23:29:17.238Z,2.20
2023-02-24T23:31:45.249Z,2.83
2023-02-24T23:34:12.405Z,1.60
2023-02-24T23:36:41.830Z,2.13
2023-02-24T23:39:10.014Z,2.17
2023-02-24T23:41:37.285Z,1.77
2023-02-24T23:44:05.364Z,1.93
2023-02-24T23:46:34.753Z,2.30
2023-02-24T23:49:04.830Z,2.40
2023-02-24T23:51:50.133Z,2.63
2023-02-24T23:54:22.098Z,1.93
2023-02-24T23:56:48.716Z,2.07
2023-02-24T23:59:18.156Z,2.03
